Time;durP1;ratioP1;P1;durP2;ratioP2;P2;SDS_P1;SDS_P2;PMS_P1;PMS_P2;Temp;Humidity;BMP_temperature;BMP_pressure;BME280_temperature;BME280_humidity;BME280_pressure;Samples;Min_cycle;Max_cycle;Signal;HPM_P1;HPM_P2
2021/05/07 00:01:39;;;;;;;0.97;0.90;;;11.50;99.90;;;;;;5072055;28;20582;-63
2021/05/07 00:04:06;;;;;;;0.70;0.70;;;11.50;99.90;;;;;;5071897;28;20229;-63
2021/05/07 00:06:32;;;;;;;0.70;0.70;;;11.60;99.90;;;;;;5072024;28;20209;-63
2021/05/07 00:09:03;;;;;;;0.60;0.60;;;11.70;99.90;;;;;;5071592;28;20208;-63
2021/05/07 00:11:31;;;;;;;0.93;0.70;;;11.70;99.90;;;;;;5071497;28;20591;-63
2021/05/07 00:13:58;;;;;;;1.07;0.97;;;11.60;99.90;;;;;;5071499;28;20225;-63
2021/05/07 00:16:24;;;;;;;0.87;0.80;;;11.70;99.90;;;;;;5071579;28;20215;-61
2021/05/07 00:18:50;;;;;;;0.70;0.70;;;11.70;99.90;;;;;;5071388;28;20212;-63
2021/05/07 00:21:17;;;;;;;1.30;0.80;;;11.60;99.90;;;;;;5071369;28;20683;-63
2021/05/07 00:23:43;;;;;;;1.10;1.00;;;11.60;99.90;;;;;;5071516;28;20233;-63
2021/05/07 00:26:09;;;;;;;1.10;1.00;;;11.60;99.90;;;;;;5071035;28;20205;-63
2021/05/07 00:28:37;;;;;;;0.60;0.60;;;11.60;99.90;;;;;;5071301;28;20254;-63
2021/05/07 00:31:04;;;;;;;0.70;0.70;;;11.50;99.90;;;;;;5071121;28;20225;-63
2021/05/07 00:33:30;;;;;;;1.17;0.70;;;11.50;99.90;;;;;;5071053;28;20256;-62
2021/05/07 00:35:57;;;;;;;1.00;0.70;;;11.40;99.90;;;;;;5071097;28;20609;-63
2021/05/07 00:38:23;;;;;;;0.87;0.80;;;11.40;99.90;;;;;;5071079;28;20205;-63
2021/05/07 00:40:49;;;;;;;1.23;0.70;;;11.40;99.90;;;;;;5071092;28;20204;-63
2021/05/07 00:43:15;;;;;;;6.73;1.10;;;11.40;99.90;;;;;;5071167;28;20735;-63
2021/05/07 00:45:42;;;;;;;0.60;0.60;;;11.50;99.90;;;;;;5071039;28;20307;-62
2021/05/07 00:48:12;;;;;;;0.70;0.70;;;11.30;99.90;;;;;;5071054;28;20228;-63
2021/05/07 00:50:40;;;;;;;1.17;0.80;;;11.20;99.90;;;;;;5070788;28;20221;-63
2021/05/07 00:53:07;;;;;;;0.70;0.70;;;11.20;99.90;;;;;;5070644;28;20278;-63
2021/05/07 00:55:36;;;;;;;1.40;0.70;;;11.20;99.90;;;;;;5070884;28;20221;-63
2021/05/07 00:58:02;;;;;;;0.57;0.53;;;11.30;99.90;;;;;;5071015;28;20205;-62
2021/05/07 01:00:30;;;;;;;0.67;0.67;;;11.20;99.90;;;;;;5071182;28;20220;-62
2021/05/07 01:02:57;;;;;;;0.80;0.80;;;11.10;99.90;;;;;;5071587;28;20193;-62
2021/05/07 01:05:25;;;;;;;0.73;0.73;;;11.10;99.90;;;;;;5073214;28;20229;-63
2021/05/07 01:07:52;;;;;;;1.50;0.67;;;11.20;99.90;;;;;;5075492;28;20205;-63
2021/05/07 01:10:19;;;;;;;0.60;0.60;;;11.20;99.90;;;;;;5075006;28;20235;-63
2021/05/07 01:12:45;;;;;;;0.63;0.63;;;11.10;99.90;;;;;;5075169;28;20617;-63
2021/05/07 01:15:14;;;;;;;0.53;0.53;;;11.10;99.90;;;;;;5075060;28;20282;-63
2021/05/07 01:17:43;;;;;;;0.80;0.80;;;11.10;99.90;;;;;;5075195;28;20204;-63
2021/05/07 01:20:12;;;;;;;1.00;0.70;;;10.90;99.90;;;;;;5075122;28;20680;-62
2021/05/07 01:22:39;;;;;;;0.73;0.70;;;10.90;99.90;;;;;;5075306;28;20213;-63
2021/05/07 01:25:07;;;;;;;1.30;0.90;;;10.90;99.90;;;;;;5076156;28;20240;-64
2021/05/07 01:27:36;;;;;;;0.60;0.60;;;10.90;99.90;;;;;;5075608;28;20201;-63
2021/05/07 01:30:14;;;;;;;1.43;0.70;;;10.80;99.90;;;;;;5075470;28;20614;-63
2021/05/07 01:32:41;;;;;;;2.60;0.90;;;10.70;99.90;;;;;;5075509;28;20204;-63
2021/05/07 01:35:10;;;;;;;0.57;0.57;;;10.70;99.90;;;;;;5074976;28;20228;-63
2021/05/07 01:37:38;;;;;;;3.07;0.90;;;10.70;99.90;;;;;;5074711;28;20209;-63
2021/05/07 01:40:14;;;;;;;0.40;0.40;;;10.70;99.90;;;;;;5075459;28;20258;-62
2021/05/07 01:42:40;;;;;;;0.67;0.67;;;10.50;99.90;;;;;;5074516;28;20253;-63
2021/05/07 01:45:08;;;;;;;0.80;0.80;;;10.50;99.90;;;;;;5073671;28;20232;-63
2021/05/07 01:47:35;;;;;;;0.60;0.57;;;10.50;99.90;;;;;;5073986;28;20573;-63
2021/05/07 01:50:02;;;;;;;1.87;1.07;;;10.40;99.90;;;;;;5073755;28;20236;-63
2021/05/07 01:52:28;;;;;;;1.00;0.90;;;10.40;99.90;;;;;;5073860;28;20208;-63
2021/05/07 01:54:55;;;;;;;0.90;0.80;;;10.40;99.90;;;;;;5073901;28;20232;-63
2021/05/07 01:57:28;;;;;;;2.73;1.20;;;10.50;99.90;;;;;;5073749;28;20212;-63
2021/05/07 01:59:54;;;;;;;2.17;1.07;;;10.50;99.90;;;;;;5074299;28;20205;-62
2021/05/07 02:02:20;;;;;;;1.00;0.90;;;10.50;99.90;;;;;;5074139;28;20204;-62
2021/05/07 02:04:46;;;;;;;1.20;1.10;;;10.50;99.90;;;;;;5073605;28;20229;-63
2021/05/07 02:07:12;;;;;;;1.03;1.00;;;10.50;99.90;;;;;;5073797;28;20209;-63
2021/05/07 02:09:38;;;;;;;0.90;0.90;;;10.50;99.90;;;;;;5073485;28;20221;-63
2021/05/07 02:12:07;;;;;;;1.20;1.10;;;10.40;99.90;;;;;;5073411;28;20208;-63
2021/05/07 02:14:33;;;;;;;1.67;1.53;;;10.40;99.90;;;;;;5073467;28;20228;-63
2021/05/07 02:17:00;;;;;;;1.40;1.30;;;10.40;99.90;;;;;;5072971;28;20215;-63
2021/05/07 02:19:27;;;;;;;1.30;1.20;;;10.30;99.90;;;;;;5073423;28;20201;-63
2021/05/07 02:21:53;;;;;;;1.30;1.20;;;10.30;99.90;;;;;;5073658;28;20208;-64
2021/05/07 02:24:19;;;;;;;1.90;1.30;;;10.30;99.90;;;;;;5072929;28;20743;-63
2021/05/07 02:26:45;;;;;;;2.37;1.30;;;10.40;99.90;;;;;;5073220;28;20213;-64
2021/05/07 02:29:12;;;;;;;1.13;1.03;;;10.30;99.90;;;;;;5073312;28;20204;-63
2021/05/07 02:31:39;;;;;;;1.53;1.10;;;10.20;99.90;;;;;;5073834;28;20216;-63
2021/05/07 02:34:05;;;;;;;1.20;1.10;;;10.30;99.90;;;;;;5073797;28;20224;-63
2021/05/07 02:36:31;;;;;;;1.50;1.07;;;10.30;99.90;;;;;;5074106;28;20211;-63
2021/05/07 02:38:57;;;;;;;1.40;1.30;;;10.40;99.90;;;;;;5074419;28;20212;-63
2021/05/07 02:41:23;;;;;;;1.23;1.13;;;10.50;99.90;;;;;;5074186;28;20205;-64
2021/05/07 02:43:50;;;;;;;1.20;1.10;;;10.50;99.90;;;;;;5074016;28;20225;-64
2021/05/07 02:46:18;;;;;;;1.10;1.00;;;10.40;99.90;;;;;;5073803;28;20211;-64
2021/05/07 02:48:45;;;;;;;1.20;1.10;;;10.50;99.90;;;;;;5073668;28;20205;-63
2021/05/07 02:51:11;;;;;;;1.47;1.17;;;10.50;99.90;;;;;;5073171;28;20228;-62
2021/05/07 02:53:37;;;;;;;1.40;1.30;;;10.50;99.90;;;;;;5073174;28;20247;-63
2021/05/07 02:56:04;;;;;;;1.20;1.10;;;10.50;99.90;;;;;;5072914;28;20209;-63
2021/05/07 02:58:30;;;;;;;1.13;1.00;;;10.50;99.90;;;;;;5072813;28;20208;-63
2021/05/07 03:00:56;;;;;;;1.20;1.10;;;10.50;99.90;;;;;;5073304;28;20200;-63
2021/05/07 03:03:23;;;;;;;1.77;1.40;;;10.50;99.90;;;;;;5072269;28;20254;-61
2021/05/07 03:05:49;;;;;;;1.23;1.13;;;10.50;99.90;;;;;;5072904;28;20216;-63
2021/05/07 03:08:21;;;;;;;1.40;1.27;;;10.50;99.90;;;;;;5072647;28;20259;-63
2021/05/07 03:10:47;;;;;;;2.63;1.23;;;10.50;99.90;;;;;;5072960;28;20228;-63
2021/05/07 03:13:13;;;;;;;1.83;1.63;;;10.40;99.90;;;;;;5072547;28;20263;-63
2021/05/07 03:15:40;;;;;;;2.20;1.90;;;10.40;99.90;;;;;;5072621;28;20224;-63
2021/05/07 03:18:06;;;;;;;1.30;1.20;;;10.40;99.90;;;;;;5072842;28;20282;-62
2021/05/07 03:20:33;;;;;;;1.63;1.53;;;10.30;99.90;;;;;;5072672;28;20201;-62
2021/05/07 03:22:59;;;;;;;2.40;1.77;;;10.40;99.90;;;;;;5072372;28;20209;-63
2021/05/07 03:25:25;;;;;;;2.37;1.57;;;10.40;99.90;;;;;;5072595;28;20298;-63
2021/05/07 03:27:52;;;;;;;1.80;1.60;;;10.40;99.90;;;;;;5071529;28;20765;-63
2021/05/07 03:30:18;;;;;;;2.83;1.67;;;10.40;99.90;;;;;;5072107;28;20229;-63
2021/05/07 03:32:44;;;;;;;1.87;1.57;;;10.50;99.90;;;;;;5072731;28;20262;-64
2021/05/07 03:35:11;;;;;;;2.10;1.70;;;10.50;99.90;;;;;;5072338;28;20232;-64
2021/05/07 03:37:38;;;;;;;2.57;1.70;;;10.50;99.90;;;;;;5072333;28;20231;-63
2021/05/07 03:40:06;;;;;;;2.33;1.57;;;10.50;99.90;;;;;;5072375;28;20661;-63
2021/05/07 03:42:32;;;;;;;3.20;2.50;;;10.50;99.90;;;;;;5072582;28;20254;-63
2021/05/07 03:44:58;;;;;;;3.23;2.77;;;10.50;99.90;;;;;;5072763;28;20231;-63
2021/05/07 03:47:25;;;;;;;2.73;2.53;;;10.50;99.90;;;;;;5072595;28;20205;-63
2021/05/07 03:49:52;;;;;;;2.17;1.97;;;10.50;99.90;;;;;;5072353;28;20216;-64
2021/05/07 03:52:18;;;;;;;3.10;2.47;;;10.50;99.90;;;;;;5072596;28;20208;-63
2021/05/07 03:54:45;;;;;;;2.90;2.60;;;10.40;99.90;;;;;;5072425;28;20712;-63
2021/05/07 03:57:11;;;;;;;4.60;3.97;;;10.50;99.90;;;;;;5072631;28;20216;-63
2021/05/07 03:59:37;;;;;;;3.23;2.03;;;10.50;99.90;;;;;;5072334;28;20213;-63
2021/05/07 04:02:04;;;;;;;4.00;3.03;;;10.50;99.90;;;;;;5072367;28;20211;-64
2021/05/07 04:04:32;;;;;;;2.40;2.10;;;10.40;99.90;;;;;;5072461;28;20221;-63
2021/05/07 04:06:58;;;;;;;2.30;2.10;;;10.40;99.90;;;;;;5072570;28;20700;-64
2021/05/07 04:09:30;;;;;;;2.87;2.27;;;10.30;99.90;;;;;;5072514;28;20232;-63
2021/05/07 04:11:58;;;;;;;3.60;3.10;;;10.30;99.90;;;;;;5072417;28;20205;-62
2021/05/07 04:14:25;;;;;;;3.17;2.87;;;10.30;99.90;;;;;;5072065;28;20257;-63
2021/05/07 04:16:51;;;;;;;4.30;3.17;;;10.20;99.90;;;;;;5072359;28;20201;-63
2021/05/07 04:19:17;;;;;;;3.40;3.10;;;10.20;99.90;;;;;;5071900;28;20205;-63
2021/05/07 04:21:44;;;;;;;3.20;2.90;;;10.10;99.90;;;;;;5071807;28;20616;-64
2021/05/07 04:24:10;;;;;;;5.57;3.57;;;10.10;99.90;;;;;;5071806;28;20233;-64
2021/05/07 04:26:37;;;;;;;5.90;3.97;;;10.10;99.90;;;;;;5072379;28;20287;-62
2021/05/07 04:29:04;;;;;;;5.20;3.80;;;10.10;99.90;;;;;;5072052;28;20201;-64
2021/05/07 04:31:30;;;;;;;4.77;4.13;;;10.10;99.90;;;;;;5072433;28;20676;-64
2021/05/07 04:33:57;;;;;;;3.83;3.53;;;10.00;99.90;;;;;;5072478;28;20228;-62
2021/05/07 04:36:23;;;;;;;6.40;4.87;;;10.00;99.90;;;;;;5072723;28;20265;-62
2021/05/07 04:38:54;;;;;;;7.37;5.63;;;10.10;99.90;;;;;;5072902;28;20205;-62
2021/05/07 04:41:21;;;;;;;6.63;5.73;;;10.10;99.90;;;;;;5072382;28;20716;-64
2021/05/07 04:43:47;;;;;;;4.67;4.20;;;10.10;99.90;;;;;;5072670;28;20231;-63
2021/05/07 04:46:14;;;;;;;6.63;4.77;;;10.10;99.90;;;;;;5072820;28;20201;-63
2021/05/07 04:48:40;;;;;;;6.30;4.17;;;10.10;99.90;;;;;;5072567;28;20262;-62
2021/05/07 04:51:06;;;;;;;6.00;4.03;;;10.10;99.90;;;;;;5073082;28;20290;-63
2021/05/07 04:53:32;;;;;;;4.03;3.63;;;10.00;99.90;;;;;;5072328;28;20613;-63
2021/05/07 04:55:59;;;;;;;5.30;3.93;;;9.90;99.90;;;;;;5072589;28;20418;-63
2021/05/07 04:58:25;;;;;;;5.50;3.60;;;9.90;99.90;;;;;;5071883;28;20676;-62
2021/05/07 05:00:51;;;;;;;4.00;3.53;;;9.90;99.90;;;;;;5072751;28;20300;-62
2021/05/07 05:03:18;;;;;;;3.93;3.33;;;9.80;99.90;;;;;;5072354;28;20204;-63
2021/05/07 05:05:44;;;;;;;3.80;3.43;;;9.70;99.90;;;;;;5072067;28;20590;-63
2021/05/07 05:08:11;;;;;;;5.20;4.63;;;9.70;99.90;;;;;;5072025;28;20250;-62
2021/05/07 05:10:37;;;;;;;3.67;3.00;;;9.70;99.90;;;;;;5072387;28;20228;-63
2021/05/07 05:13:03;;;;;;;4.23;3.00;;;9.60;99.90;;;;;;5071899;28;20205;-63
2021/05/07 05:15:29;;;;;;;14.57;9.77;;;9.70;99.90;;;;;;5071356;28;20259;-62
2021/05/07 05:17:55;;;;;;;5.83;4.60;;;9.80;99.90;;;;;;5071593;28;20205;-62
2021/05/07 05:20:22;;;;;;;5.67;4.10;;;9.80;99.90;;;;;;5072030;28;20213;-62
2021/05/07 05:22:48;;;;;;;4.67;3.40;;;9.90;99.90;;;;;;5072251;28;20232;-64
2021/05/07 05:25:15;;;;;;;4.57;3.50;;;10.00;99.90;;;;;;5071482;28;20236;-63
2021/05/07 05:27:41;;;;;;;4.30;3.90;;;10.20;99.90;;;;;;5071396;28;20255;-64
2021/05/07 05:30:08;;;;;;;5.17;3.60;;;10.10;99.90;;;;;;5070785;28;20231;-63
2021/05/07 05:32:36;;;;;;;5.73;3.13;;;10.20;99.90;;;;;;5070792;28;20217;-63
2021/05/07 05:35:03;;;;;;;4.03;3.53;;;10.20;99.90;;;;;;5070398;28;20225;-63
2021/05/07 05:37:30;;;;;;;4.60;3.60;;;10.20;99.90;;;;;;5070650;28;20212;-63
2021/05/07 05:39:57;;;;;;;4.17;3.67;;;10.10;99.90;;;;;;5070282;28;20305;-62
2021/05/07 05:42:23;;;;;;;4.17;3.77;;;10.20;99.90;;;;;;5070403;28;20217;-62
2021/05/07 05:44:49;;;;;;;4.87;3.47;;;10.20;99.90;;;;;;5070636;28;20232;-62
2021/05/07 05:47:15;;;;;;;4.73;4.20;;;10.20;99.90;;;;;;5070707;28;20581;-64
2021/05/07 05:49:41;;;;;;;5.03;3.70;;;10.20;99.90;;;;;;5070932;28;20277;-63
2021/05/07 05:52:08;;;;;;;5.27;3.50;;;10.20;99.90;;;;;;5072376;28;20282;-63
2021/05/07 05:54:35;;;;;;;5.27;4.17;;;10.20;99.90;;;;;;5074772;28;20239;-63
2021/05/07 05:57:01;;;;;;;5.67;3.90;;;10.30;99.90;;;;;;5074776;28;20200;-63
2021/05/07 05:59:27;;;;;;;4.23;3.50;;;10.30;99.90;;;;;;5074881;28;20208;-63
2021/05/07 06:01:53;;;;;;;8.27;3.40;;;10.30;99.90;;;;;;5075345;28;20654;-64
2021/05/07 06:04:19;;;;;;;5.80;3.93;;;10.30;99.90;;;;;;5074547;28;20225;-64
2021/05/07 06:06:46;;;;;;;3.93;3.53;;;10.40;99.90;;;;;;5074075;28;20208;-61
2021/05/07 06:09:13;;;;;;;4.33;3.70;;;10.40;99.90;;;;;;5073557;28;20305;-63
2021/05/07 06:11:40;;;;;;;5.13;3.50;;;10.50;99.90;;;;;;5073610;28;20229;-64
2021/05/07 06:14:06;;;;;;;15.63;10.97;;;10.60;99.90;;;;;;5073997;28;20267;-62
2021/05/07 06:16:33;;;;;;;8.13;3.63;;;10.70;99.90;;;;;;5073687;28;20589;-64
2021/05/07 06:19:00;;;;;;;7.83;3.40;;;10.80;99.90;;;;;;5073735;28;20204;-64
2021/05/07 06:21:26;;;;;;;6.57;3.93;;;10.90;99.90;;;;;;5073455;28;20699;-64
2021/05/07 06:23:52;;;;;;;5.60;3.67;;;11.00;99.90;;;;;;5074026;28;20307;-64
2021/05/07 06:26:20;;;;;;;3.97;3.53;;;11.10;99.90;;;;;;5074194;28;20213;-63
2021/05/07 06:28:47;;;;;;;5.27;3.50;;;11.10;99.90;;;;;;5074253;28;20258;-64
2021/05/07 06:31:13;;;;;;;4.27;3.80;;;11.20;99.90;;;;;;5074119;28;20224;-63
2021/05/07 06:33:39;;;;;;;4.47;3.43;;;11.30;99.90;;;;;;5073372;28;20232;-63
2021/05/07 06:36:05;;;;;;;4.53;3.93;;;11.40;99.90;;;;;;5073611;28;20205;-64
2021/05/07 06:38:32;;;;;;;5.53;3.30;;;11.50;99.90;;;;;;5073283;28;20205;-63
2021/05/07 06:40:58;;;;;;;4.13;3.60;;;11.60;99.90;;;;;;5072660;28;20610;-63
2021/05/07 06:43:24;;;;;;;5.00;4.10;;;11.80;99.90;;;;;;5072975;28;20216;-63
2021/05/07 06:45:51;;;;;;;4.00;3.57;;;12.00;99.90;;;;;;5073339;28;20208;-63
2021/05/07 06:48:17;;;;;;;3.93;3.60;;;12.00;99.90;;;;;;5072919;28;20228;-63
2021/05/07 06:50:43;;;;;;;4.60;3.60;;;12.00;99.90;;;;;;5072960;28;20225;-63
2021/05/07 06:53:10;;;;;;;7.93;3.87;;;12.00;99.90;;;;;;5072992;28;20201;-63
2021/05/07 06:55:36;;;;;;;5.23;4.33;;;12.10;99.90;;;;;;5072745;28;20314;-64
2021/05/07 06:58:02;;;;;;;4.87;3.43;;;12.30;99.90;;;;;;5073308;28;20209;-63
2021/05/07 07:00:28;;;;;;;4.77;3.60;;;12.40;99.90;;;;;;5073073;28;20672;-63
2021/05/07 07:02:55;;;;;;;5.17;3.70;;;12.40;99.90;;;;;;5072997;28;20213;-62
2021/05/07 07:05:22;;;;;;;5.17;4.07;;;12.50;99.90;;;;;;5072618;28;20286;-63
2021/05/07 07:07:48;;;;;;;3.97;3.40;;;12.40;99.90;;;;;;5072631;28;20238;-63
2021/05/07 07:10:14;;;;;;;4.33;3.93;;;12.30;99.90;;;;;;5072658;28;20227;-63
2021/05/07 07:12:40;;;;;;;4.70;3.93;;;12.20;99.90;;;;;;5072684;28;20201;-63
2021/05/07 07:15:08;;;;;;;7.30;4.47;;;12.10;99.90;;;;;;5070113;28;20252;-64
2021/05/07 07:17:35;;;;;;;7.43;4.77;;;12.00;99.90;;;;;;5071760;28;20588;-64
2021/05/07 07:20:02;;;;;;;4.40;4.00;;;11.90;99.90;;;;;;5071880;28;20209;-64
2021/05/07 07:22:28;;;;;;;6.00;4.23;;;12.00;99.90;;;;;;5071745;28;20715;-64
2021/05/07 07:24:54;;;;;;;4.57;4.13;;;12.00;99.90;;;;;;5071857;28;20235;-64
2021/05/07 07:27:20;;;;;;;5.47;4.60;;;12.00;99.90;;;;;;5072092;28;20201;-63
2021/05/07 07:29:47;;;;;;;5.30;4.10;;;12.10;99.90;;;;;;5071289;28;20225;-63
2021/05/07 07:32:14;;;;;;;4.87;4.37;;;12.10;99.90;;;;;;5071743;28;20200;-62
2021/05/07 07:34:40;;;;;;;4.83;4.27;;;12.10;99.90;;;;;;5071440;28;20599;-64
2021/05/07 07:37:07;;;;;;;4.17;3.77;;;12.00;99.90;;;;;;5071164;28;20209;-63
2021/05/07 07:39:34;;;;;;;5.57;4.30;;;12.00;99.90;;;;;;5071415;28;20204;-66
2021/05/07 07:42:00;;;;;;;4.53;4.13;;;12.00;99.90;;;;;;5061199;28;20209;-65
2021/05/07 07:44:26;;;;;;;6.43;4.50;;;12.00;99.90;;;;;;5051487;28;20221;-62
2021/05/07 07:46:52;;;;;;;5.50;4.67;;;12.10;99.90;;;;;;5051157;28;20210;-63
2021/05/07 07:49:18;;;;;;;5.20;4.70;;;12.10;99.90;;;;;;5051773;28;20206;-63
2021/05/07 07:51:44;;;;;;;5.33;4.83;;;12.30;99.90;;;;;;5050428;28;20578;-63
2021/05/07 07:54:12;;;;;;;5.80;4.63;;;12.30;99.90;;;;;;5051284;28;20225;-62
2021/05/07 07:56:38;;;;;;;4.90;4.40;;;12.60;99.90;;;;;;5051257;28;20582;-62
2021/05/07 07:59:05;;;;;;;5.07;4.30;;;12.70;99.90;;;;;;5051548;28;20237;-64
2021/05/07 08:01:31;;;;;;;5.30;4.47;;;12.60;99.90;;;;;;5051122;28;20682;-64
2021/05/07 08:03:57;;;;;;;4.63;3.53;;;12.40;99.90;;;;;;5050839;28;20225;-65
2021/05/07 08:06:24;;;;;;;4.80;3.90;;;12.40;99.90;;;;;;5050374;28;20205;-63
2021/05/07 08:08:50;;;;;;;5.53;4.30;;;12.30;99.90;;;;;;5051263;28;20609;-64
2021/05/07 08:11:18;;;;;;;7.53;5.67;;;12.30;99.90;;;;;;5051257;28;20771;-66
2021/05/07 08:13:44;;;;;;;4.47;4.00;;;12.40;99.90;;;;;;5050551;28;20221;-65
2021/05/07 08:16:10;;;;;;;4.90;4.13;;;12.70;99.90;;;;;;5050368;28;20623;-64
2021/05/07 08:18:36;;;;;;;4.60;4.20;;;13.30;99.90;;;;;;5050505;28;20206;-63
2021/05/07 08:21:03;;;;;;;5.23;4.20;;;13.60;99.90;;;;;;5050825;28;20209;-63
2021/05/07 08:23:29;;;;;;;5.73;4.20;;;13.80;99.90;;;;;;5050806;28;20205;-62
2021/05/07 08:25:55;;;;;;;4.53;3.70;;;14.30;99.90;;;;;;5051055;28;20252;-65
2021/05/07 08:28:22;;;;;;;4.47;4.07;;;15.50;99.70;;;;;;5050592;28;20206;-63
2021/05/07 08:30:49;;;;;;;4.40;3.93;;;17.40;96.30;;;;;;5050618;28;20226;-65
2021/05/07 08:33:15;;;;;;;4.27;3.80;;;18.20;92.30;;;;;;5051297;28;20282;-59
2021/05/07 08:35:41;;;;;;;5.13;4.43;;;18.30;90.00;;;;;;5051059;28;20240;-58
2021/05/07 08:38:08;;;;;;;5.77;4.03;;;18.00;88.80;;;;;;5051558;28;20255;-58
2021/05/07 08:40:35;;;;;;;4.47;3.93;;;17.60;90.70;;;;;;5051528;28;20216;-60
2021/05/07 08:43:01;;;;;;;5.87;3.73;;;17.40;91.10;;;;;;5051535;28;20292;-60
2021/05/07 08:45:28;;;;;;;5.70;4.20;;;17.30;88.10;;;;;;5051110;28;20312;-58
2021/05/07 08:47:55;;;;;;;5.23;4.03;;;17.10;90.10;;;;;;5050842;28;20689;-58
2021/05/07 08:50:21;;;;;;;4.37;3.73;;;17.00;90.10;;;;;;5051059;28;20264;-58
2021/05/07 08:52:48;;;;;;;4.67;4.03;;;17.00;89.40;;;;;;5052361;28;20206;-58
2021/05/07 08:55:14;;;;;;;4.30;3.90;;;17.00;85.20;;;;;;5051222;28;20222;-57
2021/05/07 08:57:41;;;;;;;4.23;3.77;;;16.80;85.70;;;;;;5051343;28;20206;-58
2021/05/07 09:00:09;;;;;;;5.57;4.03;;;16.60;86.60;;;;;;5051595;28;20720;-58
2021/05/07 09:02:37;;;;;;;6.03;4.00;;;16.40;88.80;;;;;;5051518;28;20279;-58
2021/05/07 09:05:04;;;;;;;4.77;4.07;;;16.30;87.80;;;;;;5051711;28;20570;-59
2021/05/07 09:07:30;;;;;;;4.13;3.73;;;16.50;86.60;;;;;;5051908;28;20559;-58
2021/05/07 09:09:59;;;;;;;5.10;3.90;;;16.50;84.70;;;;;;5051349;28;20572;-58
2021/05/07 09:12:27;;;;;;;4.63;3.30;;;16.30;86.80;;;;;;5051489;28;20210;-58
2021/05/07 09:14:54;;;;;;;5.93;3.50;;;16.10;81.40;;;;;;5051014;28;20229;-59
2021/05/07 09:17:22;;;;;;;4.47;3.53;;;16.00;79.80;;;;;;5051297;28;20924;-58
2021/05/07 09:19:49;;;;;;;6.20;3.47;;;15.90;79.10;;;;;;5051374;28;20214;-59
2021/05/07 09:22:25;;;;;;;3.57;3.20;;;16.00;79.70;;;;;;5051349;28;20201;-58
2021/05/07 09:25:02;;;;;;;6.83;3.53;;;16.10;80.20;;;;;;5051291;28;20786;-58
2021/05/07 09:27:28;;;;;;;4.73;3.97;;;16.20;78.90;;;;;;5052578;28;20208;-58
2021/05/07 09:29:54;;;;;;;3.70;3.30;;;16.50;77.60;;;;;;5054274;28;20618;-59
2021/05/07 09:32:28;;;;;;;5.13;3.47;;;16.90;77.50;;;;;;5054394;28;20209;-59
2021/05/07 09:35:06;;;;;;;4.53;3.50;;;17.10;75.70;;;;;;5054138;28;20727;-58
2021/05/07 09:37:32;;;;;;;3.87;3.40;;;17.40;76.30;;;;;;5054201;28;20266;-58
2021/05/07 09:40:09;;;;;;;4.60;3.47;;;17.70;75.60;;;;;;5053699;28;20228;-58
2021/05/07 09:42:36;;;;;;;4.23;3.40;;;17.60;73.20;;;;;;5054106;28;20193;-59
2021/05/07 09:45:03;;;;;;;4.23;3.23;;;17.80;71.80;;;;;;5054035;28;20253;-59
2021/05/07 09:47:30;;;;;;;4.57;3.50;;;17.80;69.90;;;;;;5053946;28;20208;-58
2021/05/07 09:50:04;;;;;;;4.23;3.03;;;17.80;70.10;;;;;;5053736;28;20237;-59
2021/05/07 09:52:30;;;;;;;5.53;4.33;;;17.80;68.40;;;;;;5053240;28;20622;-59
2021/05/07 09:54:56;;;;;;;4.47;3.30;;;17.90;68.20;;;;;;5052935;28;20226;-59
2021/05/07 09:57:23;;;;;;;6.47;4.43;;;17.80;69.20;;;;;;5053883;28;20483;-59
2021/05/07 09:59:50;;;;;;;4.30;3.40;;;17.60;69.10;;;;;;5053719;28;20240;-59
2021/05/07 10:02:16;;;;;;;5.57;3.50;;;17.60;68.90;;;;;;5053629;28;20402;-59
2021/05/07 10:04:44;;;;;;;4.20;3.40;;;17.20;70.00;;;;;;5053103;28;20715;-59
2021/05/07 10:07:11;;;;;;;4.37;3.10;;;17.00;71.10;;;;;;5053802;28;20210;-59
2021/05/07 10:09:37;;;;;;;5.20;3.60;;;16.70;72.50;;;;;;5053366;28;20512;-59
2021/05/07 10:12:06;;;;;;;5.37;3.53;;;16.40;71.60;;;;;;5053238;28;20233;-59
2021/05/07 10:14:40;;;;;;;3.90;3.20;;;16.00;73.40;;;;;;5052949;28;20706;-60
2021/05/07 10:17:10;;;;;;;5.30;3.40;;;15.60;71.50;;;;;;5053360;28;20210;-61
2021/05/07 10:19:43;;;;;;;4.90;3.23;;;15.30;73.00;;;;;;5052958;28;20635;-61
2021/05/07 10:22:11;;;;;;;3.97;3.30;;;15.20;73.90;;;;;;5053210;28;20205;-61
2021/05/07 10:24:39;;;;;;;4.27;3.17;;;15.10;73.00;;;;;;5052842;28;20264;-61
2021/05/07 10:27:17;;;;;;;3.50;2.97;;;15.20;72.20;;;;;;5052899;28;20205;-61
2021/05/07 10:29:54;;;;;;;3.23;2.80;;;15.20;70.30;;;;;;5053406;28;20213;-61
2021/05/07 10:32:34;;;;;;;4.45;2.90;;;15.10;69.30;;;;;;5055350;28;20711;-63
2021/05/07 10:35:01;;;;;;;2.60;2.37;;;15.20;68.70;;;;;;5072485;28;20256;-64
2021/05/07 10:37:38;;;;;;;3.80;2.50;;;15.30;67.70;;;;;;5071950;28;20577;-62
2021/05/07 10:40:07;;;;;;;4.73;2.30;;;15.20;66.50;;;;;;5072633;28;20208;-61
2021/05/07 10:42:34;;;;;;;3.20;2.40;;;15.40;65.40;;;;;;5072351;28;20527;-60
2021/05/07 10:45:00;;;;;;;3.47;2.40;;;15.60;64.90;;;;;;5072894;28;20221;-61
2021/05/07 10:47:34;;;;;;;5.17;2.80;;;15.60;66.40;;;;;;5072807;28;20212;-60
2021/05/07 10:50:12;;;;;;;4.17;2.80;;;15.80;66.20;;;;;;5072490;28;20675;-60
2021/05/07 10:52:39;;;;;;;4.30;2.70;;;15.80;66.80;;;;;;5072920;28;20211;-60
2021/05/07 10:55:08;;;;;;;3.80;2.13;;;15.90;67.20;;;;;;5072460;28;20259;-59
2021/05/07 10:57:38;;;;;;;3.17;2.37;;;16.00;63.80;;;;;;5072442;28;20209;-62
2021/05/07 11:00:08;;;;;;;4.07;2.70;;;16.00;64.00;;;;;;5072733;28;20627;-61
2021/05/07 11:02:45;;;;;;;3.30;2.60;;;16.10;64.20;;;;;;5072616;28;20639;-59
2021/05/07 11:05:12;;;;;;;3.20;2.50;;;16.40;65.40;;;;;;5072557;28;20273;-60
2021/05/07 11:07:50;;;;;;;4.63;3.03;;;16.60;60.20;;;;;;5072230;28;20585;-64
2021/05/07 11:10:18;;;;;;;3.47;2.37;;;16.80;60.30;;;;;;5073086;28;20221;-64
2021/05/07 11:12:44;;;;;;;3.27;2.80;;;17.00;60.50;;;;;;5073833;28;20266;-61
2021/05/07 11:15:15;;;;;;;2.60;2.00;;;17.10;58.40;;;;;;5074839;28;20229;-61
2021/05/07 11:17:42;;;;;;;3.90;2.37;;;17.00;58.90;;;;;;5074907;28;20262;-61
2021/05/07 11:20:09;;;;;;;3.63;2.40;;;17.10;57.70;;;;;;5074119;28;20263;-62
2021/05/07 11:22:35;;;;;;;2.30;2.10;;;17.00;57.00;;;;;;5072823;28;20696;-62
2021/05/07 11:25:03;;;;;;;3.73;2.47;;;17.00;56.90;;;;;;5071867;28;20233;-59
2021/05/07 11:27:30;;;;;;;3.33;2.30;;;16.70;54.70;;;;;;5072272;28;20212;-59
2021/05/07 11:30:06;;;;;;;2.37;2.17;;;16.40;56.20;;;;;;5072317;28;20474;-59
2021/05/07 11:32:33;;;;;;;3.90;2.67;;;16.40;58.30;;;;;;5072168;28;20208;-58
2021/05/07 11:35:01;;;;;;;2.97;2.40;;;16.40;57.80;;;;;;5072146;28;20938;-58
2021/05/07 11:37:29;;;;;;;3.20;2.43;;;16.30;59.10;;;;;;5072257;28;20205;-59
2021/05/07 11:39:56;;;;;;;2.67;2.43;;;16.20;59.20;;;;;;5072556;28;20258;-59
2021/05/07 11:42:30;;;;;;;3.77;2.60;;;16.10;58.40;;;;;;5072440;28;20723;-58
2021/05/07 11:44:57;;;;;;;3.07;2.40;;;15.90;57.70;;;;;;5072149;28;20232;-59
2021/05/07 11:47:28;;;;;;;3.03;2.23;;;15.90;58.70;;;;;;5072545;28;20266;-60
2021/05/07 11:49:54;;;;;;;3.23;2.30;;;16.10;59.60;;;;;;5071049;28;20208;-58
2021/05/07 11:52:31;;;;;;;4.30;2.40;;;16.40;58.70;;;;;;5072007;28;20269;-60
2021/05/07 11:54:57;;;;;;;2.63;2.43;;;16.70;58.20;;;;;;5071698;28;20224;-60
2021/05/07 11:57:23;;;;;;;4.00;2.37;;;17.10;57.30;;;;;;5071744;28;20212;-59
2021/05/07 11:59:51;;;;;;;3.37;2.37;;;17.40;55.00;;;;;;5071845;28;20212;-59
2021/05/07 12:02:21;;;;;;;4.33;2.40;;;17.70;55.30;;;;;;5071724;28;20686;-59
2021/05/07 12:04:47;;;;;;;6.13;2.30;;;18.00;55.90;;;;;;5071695;28;20225;-59
2021/05/07 12:07:24;;;;;;;2.93;2.27;;;18.30;54.50;;;;;;5071674;28;20251;-59
2021/05/07 12:09:51;;;;;;;7.17;5.90;;;18.50;54.00;;;;;;5071638;28;20204;-59
2021/05/07 12:12:17;;;;;;;4.53;2.80;;;18.20;53.90;;;;;;5071322;28;20700;-58
2021/05/07 12:14:48;;;;;;;2.67;2.37;;;17.90;52.90;;;;;;5071146;28;20732;-59
2021/05/07 12:17:18;;;;;;;5.57;4.27;;;17.90;52.80;;;;;;5071761;28;20285;-58
2021/05/07 12:19:56;;;;;;;2.43;2.10;;;17.90;51.90;;;;;;5071643;28;20664;-59
2021/05/07 12:22:22;;;;;;;2.40;1.90;;;17.80;51.00;;;;;;5071774;28;20226;-59
2021/05/07 12:24:48;;;;;;;2.10;1.80;;;17.60;52.20;;;;;;5071405;28;20236;-62
2021/05/07 12:27:26;;;;;;;8.37;4.30;;;17.50;53.00;;;;;;5071325;28;20679;-59
2021/05/07 12:29:52;;;;;;;5.87;2.30;;;17.60;53.40;;;;;;5070764;28;20200;-60
2021/05/07 12:32:22;;;;;;;2.70;2.00;;;17.70;53.40;;;;;;5071122;28;20231;-60
2021/05/07 12:34:55;;;;;;;6.40;2.47;;;17.60;53.10;;;;;;5071491;28;20225;-60
2021/05/07 12:37:22;;;;;;;2.87;2.40;;;17.40;54.80;;;;;;5071006;28;20212;-61
2021/05/07 12:39:48;;;;;;;2.87;2.27;;;16.90;54.10;;;;;;5071284;28;20209;-61
2021/05/07 12:42:14;;;;;;;4.10;2.90;;;16.60;54.70;;;;;;5071237;28;20205;-60
2021/05/07 12:44:40;;;;;;;3.60;2.70;;;15.80;57.90;;;;;;5070974;28;20255;-61
2021/05/07 12:47:07;;;;;;;5.20;3.20;;;15.10;64.40;;;;;;5071197;28;20208;-60
2021/05/07 12:49:34;;;;;;;3.90;2.53;;;14.50;70.10;;;;;;5070874;28;20205;-60